sensor_id;sensor_type;location;lat;lon;timestamp;temperature;humidity
24664;DHT22;12791;50.992;13.788;2023-02-24T00:01:52;9.60;99.90
24664;DHT22;12791;50.992;13.788;2023-02-24T00:04:25;9.60;99.90
24664;DHT22;12791;50.992;13.788;2023-02-24T00:06:53;9.70;99.90
24664;DHT22;12791;50.992;13.788;2023-02-24T00:09:21;9.70;99.90
24664;DHT22;12791;50.992;13.788;2023-02-24T00:11:52;9.60;99.90
24664;DHT22;12791;50.992;13.788;2023-02-24T00:14:20;9.60;99.90
24664;DHT22;12791;50.992;13.788;2023-02-24T00:16:47;9.60;99.90
24664;DHT22;12791;50.992;13.788;2023-02-24T00:19:15;9.60;99.90
24664;DHT22;12791;50.992;13.788;2023-02-24T00:21:44;9.40;99.90
24664;DHT22;12791;50.992;13.788;2023-02-24T00:24:11;9.10;99.90
24664;DHT22;12791;50.992;13.788;2023-02-24T00:26:38;9.60;99.90
24664;DHT22;12791;50.992;13.788;2023-02-24T00:29:08;9.60;99.90
24664;DHT22;12791;50.992;13.788;2023-02-24T00:31:35;9.70;99.90
24664;DHT22;12791;50.992;13.788;2023-02-24T00:34:04;9.60;99.90
24664;DHT22;12791;50.992;13.788;2023-02-24T00:36:31;9.60;99.90
24664;DHT22;12791;50.992;13.788;2023-02-24T00:39:00;9.60;99.90
24664;DHT22;12791;50.992;13.788;2023-02-24T00:41:30;9.60;99.90
24664;DHT22;12791;50.992;13.788;2023-02-24T00:43:58;9.60;99.90
24664;DHT22;12791;50.992;13.788;2023-02-24T00:46:33;9.60;99.90
24664;DHT22;12791;50.992;13.788;2023-02-24T00:49:02;9.60;99.90
24664;DHT22;12791;50.992;13.788;2023-02-24T00:51:31;9.60;99.90
24664;DHT22;12791;50.992;13.788;2023-02-24T00:54:00;9.60;99.90
24664;DHT22;12791;50.992;13.788;2023-02-24T00:56:28;9.60;99.90
24664;DHT22;12791;50.992;13.788;2023-02-24T00:58:57;9.60;99.90
24664;DHT22;12791;50.992;13.788;2023-02-24T01:01:25;9.60;99.90
24664;DHT22;12791;50.992;13.788;2023-02-24T01:03:54;9.60;99.90
24664;DHT22;12791;50.992;13.788;2023-02-24T01:06:23;9.90;99.90
24664;DHT22;12791;50.992;13.788;2023-02-24T01:08:52;9.60;99.90
24664;DHT22;12791;50.992;13.788;2023-02-24T01:11:21;9.70;99.90
24664;DHT22;12791;50.992;13.788;2023-02-24T01:14:06;9.60;99.90
24664;DHT22;12791;50.992;13.788;2023-02-24T01:16:34;9.50;99.90
24664;DHT22;12791;50.992;13.788;2023-02-24T01:19:03;9.50;99.90
24664;DHT22;12791;50.992;13.788;2023-02-24T01:21:30;9.20;99.90
24664;DHT22;12791;50.992;13.788;2023-02-24T01:23:57;9.40;99.90
24664;DHT22;12791;50.992;13.788;2023-02-24T01:26:24;9.30;99.90
24664;DHT22;12791;50.992;13.788;2023-02-24T01:28:52;9.40;99.90
24664;DHT22;12791;50.992;13.788;2023-02-24T01:31:20;9.00;99.90
24664;DHT22;12791;50.992;13.788;2023-02-24T01:33:48;9.30;99.90
24664;DHT22;12791;50.992;13.788;2023-02-24T01:36:18;9.30;99.90
24664;DHT22;12791;50.992;13.788;2023-02-24T01:38:46;9.30;99.90
24664;DHT22;12791;50.992;13.788;2023-02-24T01:41:16;9.20;99.90
24664;DHT22;12791;50.992;13.788;2023-02-24T01:43:59;9.20;99.90
24664;DHT22;12791;50.992;13.788;2023-02-24T01:46:27;9.30;99.90
24664;DHT22;12791;50.992;13.788;2023-02-24T01:48:56;9.20;99.90
24664;DHT22;12791;50.992;13.788;2023-02-24T01:51:28;9.20;99.90
24664;DHT22;12791;50.992;13.788;2023-02-24T01:53:55;9.20;99.90
24664;DHT22;12791;50.992;13.788;2023-02-24T01:56:22;9.20;99.90
24664;DHT22;12791;50.992;13.788;2023-02-24T01:58:49;9.20;99.90
24664;DHT22;12791;50.992;13.788;2023-02-24T02:01:16;9.20;99.90
24664;DHT22;12791;50.992;13.788;2023-02-24T02:03:44;9.10;99.90
24664;DHT22;12791;50.992;13.788;2023-02-24T02:06:12;9.10;99.90
24664;DHT22;12791;50.992;13.788;2023-02-24T02:08:41;9.10;99.90
24664;DHT22;12791;50.992;13.788;2023-02-24T02:11:10;9.00;99.90
24664;DHT22;12791;50.992;13.788;2023-02-24T02:13:40;9.00;99.90
24664;DHT22;12791;50.992;13.788;2023-02-24T02:16:27;9.10;99.90
24664;DHT22;12791;50.992;13.788;2023-02-24T02:19:06;9.00;99.90
24664;DHT22;12791;50.992;13.788;2023-02-24T02:22:04;9.00;99.90
24664;DHT22;12791;50.992;13.788;2023-02-24T02:24:41;9.00;99.90
24664;DHT22;12791;50.992;13.788;2023-02-24T02:36:46;9.10;99.90
24664;DHT22;12791;50.992;13.788;2023-02-24T02:39:24;8.80;99.90
24664;DHT22;12791;50.992;13.788;2023-02-24T02:41:56;8.90;99.90
24664;DHT22;12791;50.992;13.788;2023-02-24T02:44:32;8.90;99.90
24664;DHT22;12791;50.992;13.788;2023-02-24T02:47:09;8.90;99.90
24664;DHT22;12791;50.992;13.788;2023-02-24T02:49:40;8.90;99.90
24664;DHT22;12791;50.992;13.788;2023-02-24T02:52:12;8.90;99.90
24664;DHT22;12791;50.992;13.788;2023-02-24T02:54:46;9.00;99.90
24664;DHT22;12791;50.992;13.788;2023-02-24T02:57:17;8.90;99.90
24664;DHT22;12791;50.992;13.788;2023-02-24T02:59:47;8.80;99.90
24664;DHT22;12791;50.992;13.788;2023-02-24T03:02:17;8.90;99.90
24664;DHT22;12791;50.992;13.788;2023-02-24T03:04:50;8.80;99.90
24664;DHT22;12791;50.992;13.788;2023-02-24T03:07:21;8.80;99.90
24664;DHT22;12791;50.992;13.788;2023-02-24T03:09:51;8.80;99.90
24664;DHT22;12791;50.992;13.788;2023-02-24T03:12:22;8.80;99.90
24664;DHT22;12791;50.992;13.788;2023-02-24T03:14:52;8.80;99.90
24664;DHT22;12791;50.992;13.788;2023-02-24T03:17:24;8.80;99.90
24664;DHT22;12791;50.992;13.788;2023-02-24T03:19:54;8.80;99.90
24664;DHT22;12791;50.992;13.788;2023-02-24T03:22:32;8.60;99.90
24664;DHT22;12791;50.992;13.788;2023-02-24T03:25:00;8.90;99.90
24664;DHT22;12791;50.992;13.788;2023-02-24T03:27:32;8.90;99.90
24664;DHT22;12791;50.992;13.788;2023-02-24T03:30:08;8.80;99.90
24664;DHT22;12791;50.992;13.788;2023-02-24T03:32:41;9.00;99.90
24664;DHT22;12791;50.992;13.788;2023-02-24T03:35:16;8.80;99.90
24664;DHT22;12791;50.992;13.788;2023-02-24T03:37:47;8.90;99.90
24664;DHT22;12791;50.992;13.788;2023-02-24T03:40:14;8.70;99.90
24664;DHT22;12791;50.992;13.788;2023-02-24T03:42:45;8.70;99.90
24664;DHT22;12791;50.992;13.788;2023-02-24T03:45:13;8.60;99.90
24664;DHT22;12791;50.992;13.788;2023-02-24T03:47:40;8.60;99.90
24664;DHT22;12791;50.992;13.788;2023-02-24T03:50:12;8.40;99.90
24664;DHT22;12791;50.992;13.788;2023-02-24T03:52:43;8.20;99.90
24664;DHT22;12791;50.992;13.788;2023-02-24T03:55:22;8.10;99.90
24664;DHT22;12791;50.992;13.788;2023-02-24T03:57:59;7.80;99.90
24664;DHT22;12791;50.992;13.788;2023-02-24T04:00:34;7.90;99.90
24664;DHT22;12791;50.992;13.788;2023-02-24T04:03:18;7.80;99.90
24664;DHT22;12791;50.992;13.788;2023-02-24T04:05:57;7.80;99.90
24664;DHT22;12791;50.992;13.788;2023-02-24T04:08:27;7.90;99.90
24664;DHT22;12791;50.992;13.788;2023-02-24T04:11:01;7.70;99.90
24664;DHT22;12791;50.992;13.788;2023-02-24T04:13:34;7.70;99.90
24664;DHT22;12791;50.992;13.788;2023-02-24T04:16:09;7.90;99.90
24664;DHT22;12791;50.992;13.788;2023-02-24T04:18:45;7.70;99.90
24664;DHT22;12791;50.992;13.788;2023-02-24T04:21:15;7.60;99.90
24664;DHT22;12791;50.992;13.788;2023-02-24T04:23:44;7.40;99.90
24664;DHT22;12791;50.992;13.788;2023-02-24T04:26:15;7.40;99.90
24664;DHT22;12791;50.992;13.788;2023-02-24T04:28:45;7.40;99.90
24664;DHT22;12791;50.992;13.788;2023-02-24T04:31:13;7.30;99.90
24664;DHT22;12791;50.992;13.788;2023-02-24T04:33:43;7.30;99.90
24664;DHT22;12791;50.992;13.788;2023-02-24T04:36:15;7.60;99.90
24664;DHT22;12791;50.992;13.788;2023-02-24T04:38:41;7.30;99.90
24664;DHT22;12791;50.992;13.788;2023-02-24T04:41:10;7.40;99.90
24664;DHT22;12791;50.992;13.788;2023-02-24T04:43:38;7.40;99.90
24664;DHT22;12791;50.992;13.788;2023-02-24T04:46:05;7.10;99.90
24664;DHT22;12791;50.992;13.788;2023-02-24T04:48:32;7.60;99.90
24664;DHT22;12791;50.992;13.788;2023-02-24T04:51:00;7.50;99.90
24664;DHT22;12791;50.992;13.788;2023-02-24T04:53:27;7.50;99.90
24664;DHT22;12791;50.992;13.788;2023-02-24T04:55:54;7.60;99.90
24664;DHT22;12791;50.992;13.788;2023-02-24T04:58:23;7.50;99.90
24664;DHT22;12791;50.992;13.788;2023-02-24T05:00:53;7.40;99.90
24664;DHT22;12791;50.992;13.788;2023-02-24T05:03:21;7.60;99.90
24664;DHT22;12791;50.992;13.788;2023-02-24T05:05:54;7.40;99.90
24664;DHT22;12791;50.992;13.788;2023-02-24T05:08:22;7.10;99.90
24664;DHT22;12791;50.992;13.788;2023-02-24T05:10:49;7.60;99.90
24664;DHT22;12791;50.992;13.788;2023-02-24T05:13:17;7.80;99.90
24664;DHT22;12791;50.992;13.788;2023-02-24T05:15:45;7.70;99.90
24664;DHT22;12791;50.992;13.788;2023-02-24T05:18:16;7.60;99.90
24664;DHT22;12791;50.992;13.788;2023-02-24T05:20:45;7.80;99.90
24664;DHT22;12791;50.992;13.788;2023-02-24T05:23:32;7.70;99.90
24664;DHT22;12791;50.992;13.788;2023-02-24T05:25:59;7.50;99.90
24664;DHT22;12791;50.992;13.788;2023-02-24T05:28:26;7.70;99.90
24664;DHT22;12791;50.992;13.788;2023-02-24T05:31:03;7.60;99.90
24664;DHT22;12791;50.992;13.788;2023-02-24T05:33:31;7.60;99.90
24664;DHT22;12791;50.992;13.788;2023-02-24T05:36:02;7.70;99.90
24664;DHT22;12791;50.992;13.788;2023-02-24T05:38:30;7.70;99.90
24664;DHT22;12791;50.992;13.788;2023-02-24T05:41:03;7.70;99.90
24664;DHT22;12791;50.992;13.788;2023-02-24T05:43:31;7.70;99.90
24664;DHT22;12791;50.992;13.788;2023-02-24T05:46:00;7.50;99.90
24664;DHT22;12791;50.992;13.788;2023-02-24T05:48:28;7.90;99.90
24664;DHT22;12791;50.992;13.788;2023-02-24T05:51:00;7.70;99.90
24664;DHT22;12791;50.992;13.788;2023-02-24T05:53:28;8.00;99.90
24664;DHT22;12791;50.992;13.788;2023-02-24T05:55:54;7.80;99.90
24664;DHT22;12791;50.992;13.788;2023-02-24T05:58:25;7.80;99.90
24664;DHT22;12791;50.992;13.788;2023-02-24T06:00:53;7.60;99.90
24664;DHT22;12791;50.992;13.788;2023-02-24T06:03:20;7.80;99.90
24664;DHT22;12791;50.992;13.788;2023-02-24T06:05:55;7.30;99.90
24664;DHT22;12791;50.992;13.788;2023-02-24T06:08:31;7.50;99.90
24664;DHT22;12791;50.992;13.788;2023-02-24T06:11:07;7.40;99.90
24664;DHT22;12791;50.992;13.788;2023-02-24T06:13:34;7.60;99.90
24664;DHT22;12791;50.992;13.788;2023-02-24T06:16:01;7.20;99.90
24664;DHT22;12791;50.992;13.788;2023-02-24T06:18:28;7.20;99.90
24664;DHT22;12791;50.992;13.788;2023-02-24T06:20:54;7.30;99.90
24664;DHT22;12791;50.992;13.788;2023-02-24T06:23:21;7.20;99.90
24664;DHT22;12791;50.992;13.788;2023-02-24T06:25:52;7.10;99.90
24664;DHT22;12791;50.992;13.788;2023-02-24T06:28:22;7.10;99.90
24664;DHT22;12791;50.992;13.788;2023-02-24T06:30:49;7.00;99.90
24664;DHT22;12791;50.992;13.788;2023-02-24T06:33:15;6.80;99.90
24664;DHT22;12791;50.992;13.788;2023-02-24T06:35:42;6.80;99.90
24664;DHT22;12791;50.992;13.788;2023-02-24T06:38:09;6.70;99.90
24664;DHT22;12791;50.992;13.788;2023-02-24T06:40:35;6.70;99.90
24664;DHT22;12791;50.992;13.788;2023-02-24T06:43:03;6.50;99.90
24664;DHT22;12791;50.992;13.788;2023-02-24T06:45:30;6.30;99.90
24664;DHT22;12791;50.992;13.788;2023-02-24T06:47:56;6.10;99.90
24664;DHT22;12791;50.992;13.788;2023-02-24T06:50:23;6.10;99.90
24664;DHT22;12791;50.992;13.788;2023-02-24T06:52:53;5.90;99.90
24664;DHT22;12791;50.992;13.788;2023-02-24T06:55:20;5.90;99.90
24664;DHT22;12791;50.992;13.788;2023-02-24T06:57:53;6.20;99.90
24664;DHT22;12791;50.992;13.788;2023-02-24T07:00:25;5.80;99.90
24664;DHT22;12791;50.992;13.788;2023-02-24T07:03:02;6.00;99.90
24664;DHT22;12791;50.992;13.788;2023-02-24T07:05:40;5.90;99.90
24664;DHT22;12791;50.992;13.788;2023-02-24T07:08:06;5.80;99.90
24664;DHT22;12791;50.992;13.788;2023-02-24T07:10:33;5.90;99.90
24664;DHT22;12791;50.992;13.788;2023-02-24T07:13:00;5.80;99.90
24664;DHT22;12791;50.992;13.788;2023-02-24T07:15:28;5.70;99.90
24664;DHT22;12791;50.992;13.788;2023-02-24T07:17:56;5.70;99.90
24664;DHT22;12791;50.992;13.788;2023-02-24T07:20:23;5.60;99.90
24664;DHT22;12791;50.992;13.788;2023-02-24T07:22:50;5.60;99.90
24664;DHT22;12791;50.992;13.788;2023-02-24T07:25:17;5.80;99.90
24664;DHT22;12791;50.992;13.788;2023-02-24T07:27:58;5.70;99.90
24664;DHT22;12791;50.992;13.788;2023-02-24T07:30:28;5.70;99.90
24664;DHT22;12791;50.992;13.788;2023-02-24T07:32:55;5.70;99.90
24664;DHT22;12791;50.992;13.788;2023-02-24T07:35:22;5.60;99.90
24664;DHT22;12791;50.992;13.788;2023-02-24T07:37:49;5.60;99.90
24664;DHT22;12791;50.992;13.788;2023-02-24T07:40:16;5.60;99.90
24664;DHT22;12791;50.992;13.788;2023-02-24T07:42:46;5.60;99.90
24664;DHT22;12791;50.992;13.788;2023-02-24T07:45:13;5.60;99.90
24664;DHT22;12791;50.992;13.788;2023-02-24T07:47:41;5.60;99.90
24664;DHT22;12791;50.992;13.788;2023-02-24T07:50:10;5.60;99.90
24664;DHT22;12791;50.992;13.788;2023-02-24T07:52:39;5.70;99.90
24664;DHT22;12791;50.992;13.788;2023-02-24T07:55:06;5.70;99.90
24664;DHT22;12791;50.992;13.788;2023-02-24T07:57:33;5.60;99.90
24664;DHT22;12791;50.992;13.788;2023-02-24T08:00:02;5.50;99.90
24664;DHT22;12791;50.992;13.788;2023-02-24T08:02:42;5.50;99.90
24664;DHT22;12791;50.992;13.788;2023-02-24T08:05:09;5.20;99.90
24664;DHT22;12791;50.992;13.788;2023-02-24T08:07:36;5.20;99.90
24664;DHT22;12791;50.992;13.788;2023-02-24T08:10:04;5.20;99.90
24664;DHT22;12791;50.992;13.788;2023-02-24T08:12:49;5.10;99.90
24664;DHT22;12791;50.992;13.788;2023-02-24T08:15:19;5.30;99.90
24664;DHT22;12791;50.992;13.788;2023-02-24T08:17:51;5.20;99.90
24664;DHT22;12791;50.992;13.788;2023-02-24T08:20:19;5.20;99.90
24664;DHT22;12791;50.992;13.788;2023-02-24T08:22:54;5.30;99.90
24664;DHT22;12791;50.992;13.788;2023-02-24T08:25:22;5.40;99.90
24664;DHT22;12791;50.992;13.788;2023-02-24T08:27:51;5.40;99.90
24664;DHT22;12791;50.992;13.788;2023-02-24T08:30:22;5.50;99.90
24664;DHT22;12791;50.992;13.788;2023-02-24T08:32:52;5.50;99.90
24664;DHT22;12791;50.992;13.788;2023-02-24T08:35:23;5.70;99.90
24664;DHT22;12791;50.992;13.788;2023-02-24T08:37:59;5.60;99.90
24664;DHT22;12791;50.992;13.788;2023-02-24T08:40:28;5.50;99.90
24664;DHT22;12791;50.992;13.788;2023-02-24T08:43:06;5.40;99.90
24664;DHT22;12791;50.992;13.788;2023-02-24T08:45:42;5.60;99.90
24664;DHT22;12791;50.992;13.788;2023-02-24T08:48:11;5.70;99.90
24664;DHT22;12791;50.992;13.788;2023-02-24T08:50:51;5.40;99.90
24664;DHT22;12791;50.992;13.788;2023-02-24T08:53:18;5.60;99.90
24664;DHT22;12791;50.992;13.788;2023-02-24T08:55:45;5.60;99.90
24664;DHT22;12791;50.992;13.788;2023-02-24T08:58:16;5.60;99.90
24664;DHT22;12791;50.992;13.788;2023-02-24T09:00:43;5.50;99.90
24664;DHT22;12791;50.992;13.788;2023-02-24T09:03:16;5.30;99.90
24664;DHT22;12791;50.992;13.788;2023-02-24T09:05:58;5.30;99.90
24664;DHT22;12791;50.992;13.788;2023-02-24T09:08:25;5.00;99.90
24664;DHT22;12791;50.992;13.788;2023-02-24T09:10:58;5.30;99.90
24664;DHT22;12791;50.992;13.788;2023-02-24T09:13:25;5.30;99.90
24664;DHT22;12791;50.992;13.788;2023-02-24T09:15:58;5.40;99.90
24664;DHT22;12791;50.992;13.788;2023-02-24T09:18:26;5.30;99.90
24664;DHT22;12791;50.992;13.788;2023-02-24T09:20:55;5.50;99.90
24664;DHT22;12791;50.992;13.788;2023-02-24T09:23:21;5.60;99.90
24664;DHT22;12791;50.992;13.788;2023-02-24T09:25:54;5.70;99.90
24664;DHT22;12791;50.992;13.788;2023-02-24T09:28:22;5.90;99.90
24664;DHT22;12791;50.992;13.788;2023-02-24T09:30:51;5.80;99.90
24664;DHT22;12791;50.992;13.788;2023-02-24T09:33:21;5.80;99.90
24664;DHT22;12791;50.992;13.788;2023-02-24T09:35:55;5.80;99.90
24664;DHT22;12791;50.992;13.788;2023-02-24T09:38:43;5.90;99.90
24664;DHT22;12791;50.992;13.788;2023-02-24T09:41:32;6.10;99.90
24664;DHT22;12791;50.992;13.788;2023-02-24T09:44:23;6.10;99.90
24664;DHT22;12791;50.992;13.788;2023-02-24T09:46:53;6.10;99.90
24664;DHT22;12791;50.992;13.788;2023-02-24T09:49:23;6.10;99.90
24664;DHT22;12791;50.992;13.788;2023-02-24T09:51:53;6.20;99.90
24664;DHT22;12791;50.992;13.788;2023-02-24T09:54:28;6.30;99.90
24664;DHT22;12791;50.992;13.788;2023-02-24T09:57:00;6.00;99.90
24664;DHT22;12791;50.992;13.788;2023-02-24T09:59:40;6.50;99.90
24664;DHT22;12791;50.992;13.788;2023-02-24T10:02:36;6.60;99.90
24664;DHT22;12791;50.992;13.788;2023-02-24T10:05:16;6.60;99.90
24664;DHT22;12791;50.992;13.788;2023-02-24T10:07:47;6.60;99.90
24664;DHT22;12791;50.992;13.788;2023-02-24T10:10:19;6.70;99.90
24664;DHT22;12791;50.992;13.788;2023-02-24T10:12:57;6.70;99.90
24664;DHT22;12791;50.992;13.788;2023-02-24T10:15:29;6.80;99.90
24664;DHT22;12791;50.992;13.788;2023-02-24T10:18:25;6.80;99.90
24664;DHT22;12791;50.992;13.788;2023-02-24T10:20:54;6.80;99.90
24664;DHT22;12791;50.992;13.788;2023-02-24T10:23:28;6.80;99.90
24664;DHT22;12791;50.992;13.788;2023-02-24T10:26:00;6.70;99.90
24664;DHT22;12791;50.992;13.788;2023-02-24T10:28:33;6.70;99.90
24664;DHT22;12791;50.992;13.788;2023-02-24T10:31:08;6.60;99.90
24664;DHT22;12791;50.992;13.788;2023-02-24T10:33:37;6.80;99.90
24664;DHT22;12791;50.992;13.788;2023-02-24T10:36:11;6.80;99.90
24664;DHT22;12791;50.992;13.788;2023-02-24T10:38:43;6.60;99.90
24664;DHT22;12791;50.992;13.788;2023-02-24T10:41:12;6.80;99.90
24664;DHT22;12791;50.992;13.788;2023-02-24T10:43:39;7.00;99.90
24664;DHT22;12791;50.992;13.788;2023-02-24T10:46:21;7.00;99.90
24664;DHT22;12791;50.992;13.788;2023-02-24T10:48:52;7.00;99.90
24664;DHT22;12791;50.992;13.788;2023-02-24T10:51:27;6.80;99.90
24664;DHT22;12791;50.992;13.788;2023-02-24T10:54:05;7.10;99.90
24664;DHT22;12791;50.992;13.788;2023-02-24T10:56:46;6.80;99.90
24664;DHT22;12791;50.992;13.788;2023-02-24T10:59:19;6.80;99.90
24664;DHT22;12791;50.992;13.788;2023-02-24T11:02:15;6.90;99.90
24664;DHT22;12791;50.992;13.788;2023-02-24T11:04:54;7.00;99.90
24664;DHT22;12791;50.992;13.788;2023-02-24T11:07:41;6.80;99.90
24664;DHT22;12791;50.992;13.788;2023-02-24T11:10:21;6.80;99.90
24664;DHT22;12791;50.992;13.788;2023-02-24T11:12:54;6.60;99.90
24664;DHT22;12791;50.992;13.788;2023-02-24T11:15:43;6.80;99.90
24664;DHT22;12791;50.992;13.788;2023-02-24T11:18:29;6.80;99.90
24664;DHT22;12791;50.992;13.788;2023-02-24T11:20:58;6.80;99.90
24664;DHT22;12791;50.992;13.788;2023-02-24T11:23:27;6.90;99.90
24664;DHT22;12791;50.992;13.788;2023-02-24T11:25:59;6.80;99.90
24664;DHT22;12791;50.992;13.788;2023-02-24T11:31:39;6.80;99.90
24664;DHT22;12791;50.992;13.788;2023-02-24T11:34:13;6.70;99.90
24664;DHT22;12791;50.992;13.788;2023-02-24T11:36:43;6.50;99.90
24664;DHT22;12791;50.992;13.788;2023-02-24T11:39:29;6.80;99.90
24664;DHT22;12791;50.992;13.788;2023-02-24T11:41:59;6.90;99.90
24664;DHT22;12791;50.992;13.788;2023-02-24T11:44:30;6.80;99.90
24664;DHT22;12791;50.992;13.788;2023-02-24T11:47:02;6.80;99.90
24664;DHT22;12791;50.992;13.788;2023-02-24T11:49:38;6.60;99.90
24664;DHT22;12791;50.992;13.788;2023-02-24T11:52:12;6.80;99.90
24664;DHT22;12791;50.992;13.788;2023-02-24T11:54:45;6.80;99.90
24664;DHT22;12791;50.992;13.788;2023-02-24T11:57:18;6.80;99.90
24664;DHT22;12791;50.992;13.788;2023-02-24T11:59:50;6.80;99.90
24664;DHT22;12791;50.992;13.788;2023-02-24T12:02:27;6.90;99.90
24664;DHT22;12791;50.992;13.788;2023-02-24T12:05:02;7.00;99.90
24664;DHT22;12791;50.992;13.788;2023-02-24T12:07:31;6.90;99.90
24664;DHT22;12791;50.992;13.788;2023-02-24T12:10:05;7.10;99.90
24664;DHT22;12791;50.992;13.788;2023-02-24T12:12:40;7.10;99.90
24664;DHT22;12791;50.992;13.788;2023-02-24T12:15:14;7.10;99.90
24664;DHT22;12791;50.992;13.788;2023-02-24T12:17:49;7.00;99.90
24664;DHT22;12791;50.992;13.788;2023-02-24T12:20:26;7.10;99.90
24664;DHT22;12791;50.992;13.788;2023-02-24T12:22:56;7.10;99.90
24664;DHT22;12791;50.992;13.788;2023-02-24T12:25:26;7.10;99.90
24664;DHT22;12791;50.992;13.788;2023-02-24T12:28:07;7.30;99.90
24664;DHT22;12791;50.992;13.788;2023-02-24T12:30:49;7.20;99.90
24664;DHT22;12791;50.992;13.788;2023-02-24T12:33:40;7.20;99.90
24664;DHT22;12791;50.992;13.788;2023-02-24T12:36:17;7.40;99.90
24664;DHT22;12791;50.992;13.788;2023-02-24T12:38:53;7.30;99.90
24664;DHT22;12791;50.992;13.788;2023-02-24T12:41:32;7.50;99.90
24664;DHT22;12791;50.992;13.788;2023-02-24T12:44:12;7.30;99.90
24664;DHT22;12791;50.992;13.788;2023-02-24T12:46:42;7.50;99.90
24664;DHT22;12791;50.992;13.788;2023-02-24T12:49:32;7.30;99.90
24664;DHT22;12791;50.992;13.788;2023-02-24T12:52:09;7.50;99.90
24664;DHT22;12791;50.992;13.788;2023-02-24T12:54:42;7.60;99.90
24664;DHT22;12791;50.992;13.788;2023-02-24T12:57:17;7.50;99.90
24664;DHT22;12791;50.992;13.788;2023-02-24T12:59:47;7.60;99.90
24664;DHT22;12791;50.992;13.788;2023-02-24T13:02:21;7.60;99.90
24664;DHT22;12791;50.992;13.788;2023-02-24T13:04:55;7.60;99.90
24664;DHT22;12791;50.992;13.788;2023-02-24T13:07:37;7.70;99.90
24664;DHT22;12791;50.992;13.788;2023-02-24T13:10:15;7.70;99.90
24664;DHT22;12791;50.992;13.788;2023-02-24T13:12:48;7.70;99.90
24664;DHT22;12791;50.992;13.788;2023-02-24T13:15:20;7.70;99.90
24664;DHT22;12791;50.992;13.788;2023-02-24T13:17:49;7.60;99.90
24664;DHT22;12791;50.992;13.788;2023-02-24T13:20:25;7.70;99.90
24664;DHT22;12791;50.992;13.788;2023-02-24T13:22:53;7.70;99.90
24664;DHT22;12791;50.992;13.788;2023-02-24T13:25:22;7.80;99.90
24664;DHT22;12791;50.992;13.788;2023-02-24T13:27:56;7.70;99.90
24664;DHT22;12791;50.992;13.788;2023-02-24T13:30:29;7.70;99.90
24664;DHT22;12791;50.992;13.788;2023-02-24T13:33:03;7.70;99.90
24664;DHT22;12791;50.992;13.788;2023-02-24T13:35:33;7.70;99.90
24664;DHT22;12791;50.992;13.788;2023-02-24T13:38:08;7.70;99.90
24664;DHT22;12791;50.992;13.788;2023-02-24T13:40:36;7.80;99.90
24664;DHT22;12791;50.992;13.788;2023-02-24T13:43:03;7.80;99.90
24664;DHT22;12791;50.992;13.788;2023-02-24T13:45:32;7.80;99.90
24664;DHT22;12791;50.992;13.788;2023-02-24T13:48:36;7.60;99.90
24664;DHT22;12791;50.992;13.788;2023-02-24T13:51:17;7.80;99.90
24664;DHT22;12791;50.992;13.788;2023-02-24T13:53:58;7.80;99.90
24664;DHT22;12791;50.992;13.788;2023-02-24T13:56:36;8.00;99.90
24664;DHT22;12791;50.992;13.788;2023-02-24T13:59:16;7.90;99.90
24664;DHT22;12791;50.992;13.788;2023-02-24T14:01:56;7.90;99.90
24664;DHT22;12791;50.992;13.788;2023-02-24T14:04:24;7.80;99.90
24664;DHT22;12791;50.992;13.788;2023-02-24T14:06:54;7.90;99.90
24664;DHT22;12791;50.992;13.788;2023-02-24T14:09:24;7.90;99.90
24664;DHT22;12791;50.992;13.788;2023-02-24T14:11:57;8.00;99.90
24664;DHT22;12791;50.992;13.788;2023-02-24T14:14:25;8.00;99.90
24664;DHT22;12791;50.992;13.788;2023-02-24T14:16:54;8.00;99.90
24664;DHT22;12791;50.992;13.788;2023-02-24T14:19:24;8.00;99.90
24664;DHT22;12791;50.992;13.788;2023-02-24T14:21:53;8.00;99.90
24664;DHT22;12791;50.992;13.788;2023-02-24T14:24:20;8.00;99.90
24664;DHT22;12791;50.992;13.788;2023-02-24T14:26:49;8.00;99.90
24664;DHT22;12791;50.992;13.788;2023-02-24T14:29:18;7.80;99.90
24664;DHT22;12791;50.992;13.788;2023-02-24T14:31:47;8.10;99.90
24664;DHT22;12791;50.992;13.788;2023-02-24T14:34:18;8.00;99.90
24664;DHT22;12791;50.992;13.788;2023-02-24T14:36:46;8.10;99.90
24664;DHT22;12791;50.992;13.788;2023-02-24T14:39:15;8.00;99.90
24664;DHT22;12791;50.992;13.788;2023-02-24T14:41:43;7.90;99.90
24664;DHT22;12791;50.992;13.788;2023-02-24T14:44:23;8.20;99.90
24664;DHT22;12791;50.992;13.788;2023-02-24T14:46:51;7.90;99.90
24664;DHT22;12791;50.992;13.788;2023-02-24T14:49:21;7.90;99.90
24664;DHT22;12791;50.992;13.788;2023-02-24T14:51:53;7.90;99.90
24664;DHT22;12791;50.992;13.788;2023-02-24T14:54:37;7.80;99.90
24664;DHT22;12791;50.992;13.788;2023-02-24T14:57:11;7.80;99.90
24664;DHT22;12791;50.992;13.788;2023-02-24T14:59:39;8.00;99.90
24664;DHT22;12791;50.992;13.788;2023-02-24T15:02:12;7.90;99.90
24664;DHT22;12791;50.992;13.788;2023-02-24T15:04:41;7.70;99.90
24664;DHT22;12791;50.992;13.788;2023-02-24T15:07:15;7.70;99.90
24664;DHT22;12791;50.992;13.788;2023-02-24T15:09:44;7.70;99.90
24664;DHT22;12791;50.992;13.788;2023-02-24T15:12:20;7.70;99.90
24664;DHT22;12791;50.992;13.788;2023-02-24T15:14:50;7.80;99.90
24664;DHT22;12791;50.992;13.788;2023-02-24T15:17:19;7.60;99.90
24664;DHT22;12791;50.992;13.788;2023-02-24T15:19:48;7.80;99.90
24664;DHT22;12791;50.992;13.788;2023-02-24T15:22:21;7.80;99.90
24664;DHT22;12791;50.992;13.788;2023-02-24T15:24:48;7.70;99.90
24664;DHT22;12791;50.992;13.788;2023-02-24T15:27:20;7.70;99.90
24664;DHT22;12791;50.992;13.788;2023-02-24T15:29:57;7.80;99.90
24664;DHT22;12791;50.992;13.788;2023-02-24T15:32:25;7.80;99.90
24664;DHT22;12791;50.992;13.788;2023-02-24T15:34:54;7.60;99.90
24664;DHT22;12791;50.992;13.788;2023-02-24T15:37:22;7.60;99.90
24664;DHT22;12791;50.992;13.788;2023-02-24T15:40:01;7.50;99.90
24664;DHT22;12791;50.992;13.788;2023-02-24T15:42:31;7.60;99.90
24664;DHT22;12791;50.992;13.788;2023-02-24T15:44:59;7.60;99.90
24664;DHT22;12791;50.992;13.788;2023-02-24T15:47:28;7.60;99.90
24664;DHT22;12791;50.992;13.788;2023-02-24T15:49:57;7.60;99.90
24664;DHT22;12791;50.992;13.788;2023-02-24T15:52:26;7.60;99.90
24664;DHT22;12791;50.992;13.788;2023-02-24T15:54:53;7.60;99.90
24664;DHT22;12791;50.992;13.788;2023-02-24T15:57:21;7.60;99.90
24664;DHT22;12791;50.992;13.788;2023-02-24T15:59:48;7.90;99.90
24664;DHT22;12791;50.992;13.788;2023-02-24T16:02:17;7.20;99.90
24664;DHT22;12791;50.992;13.788;2023-02-24T16:04:44;7.70;99.90
24664;DHT22;12791;50.992;13.788;2023-02-24T16:07:16;7.30;99.90
24664;DHT22;12791;50.992;13.788;2023-02-24T16:09:43;7.80;99.90
24664;DHT22;12791;50.992;13.788;2023-02-24T16:12:14;7.30;99.90